createdAt,value
2022-11-27T00:00:01.906Z,4.60
2022-11-27T00:02:29.039Z,5.55
2022-11-27T00:04:56.162Z,3.63
2022-11-27T00:07:23.301Z,6.20
2022-11-27T00:09:50.296Z,4.68
2022-11-27T00:12:17.312Z,2.17
2022-11-27T00:14:44.279Z,4.63
2022-11-27T00:17:11.267Z,3.10
2022-11-27T00:19:38.594Z,4.30
2022-11-27T00:22:05.776Z,4.80
2022-11-27T00:24:32.774Z,4.30
2022-11-27T00:26:59.724Z,5.80
2022-11-27T00:29:29.174Z,4.03
2022-11-27T00:31:56.634Z,3.83
2022-11-27T00:34:23.590Z,4.53
2022-11-27T00:36:50.558Z,2.45
2022-11-27T00:39:17.836Z,2.70
2022-11-27T00:41:45.366Z,2.42
2022-11-27T00:44:14.286Z,4.93
2022-11-27T00:46:42.255Z,3.10
2022-11-27T00:49:12.431Z,4.40
2022-11-27T00:51:39.677Z,3.20
2022-11-27T00:54:07.423Z,5.00
2022-11-27T00:56:38.627Z,6.75
2022-11-27T00:59:07.101Z,4.13
2022-11-27T01:01:43.372Z,3.45
2022-11-27T01:04:14.291Z,4.07
2022-11-27T01:06:42.117Z,2.90
2022-11-27T01:09:10.403Z,3.42
2022-11-27T01:11:37.684Z,3.67
2022-11-27T01:14:07.984Z,3.80
2022-11-27T01:16:36.421Z,3.50
2022-11-27T01:19:05.792Z,1.73
2022-11-27T01:21:34.515Z,5.88
2022-11-27T01:24:02.982Z,4.70
2022-11-27T01:26:30.288Z,3.67
2022-11-27T01:28:58.758Z,5.15
2022-11-27T01:31:29.648Z,5.25
2022-11-27T01:34:06.411Z,2.72
2022-11-27T01:36:35.242Z,2.80
2022-11-27T01:39:03.496Z,4.60
2022-11-27T01:41:39.982Z,1.42
2022-11-27T01:44:25.099Z,2.97
2022-11-27T01:46:58.448Z,3.35
2022-11-27T01:49:25.470Z,3.92
2022-11-27T01:51:52.358Z,3.63
2022-11-27T01:54:21.909Z,2.97
2022-11-27T01:56:52.364Z,2.20
2022-11-27T01:59:19.577Z,7.15
2022-11-27T02:01:46.589Z,2.80
2022-11-27T02:04:13.794Z,2.78
2022-11-27T02:06:40.824Z,4.63
2022-11-27T02:09:07.794Z,2.88
2022-11-27T02:12:00.778Z,1.65
2022-11-27T02:14:53.533Z,5.97
2022-11-27T02:17:48.788Z,3.28
2022-11-27T02:20:31.070Z,1.92
2022-11-27T02:23:10.276Z,1.63
2022-11-27T02:25:46.177Z,2.53
2022-11-27T02:28:32.997Z,9.43
2022-11-27T02:31:16.733Z,1.52
2022-11-27T02:33:49.018Z,3.50
2022-11-27T02:36:22.922Z,2.13
2022-11-27T02:38:55.624Z,2.22
2022-11-27T02:41:46.911Z,2.92
2022-11-27T02:44:16.897Z,3.97
2022-11-27T02:46:45.592Z,1.73
2022-11-27T02:49:17.873Z,3.40
2022-11-27T02:52:04.855Z,3.22
2022-11-27T02:54:32.889Z,2.42
2022-11-27T02:57:03.730Z,3.25
2022-11-27T02:59:33.534Z,2.63
2022-11-27T03:02:07.732Z,3.35
2022-11-27T03:04:52.122Z,4.07
2022-11-27T03:07:28.108Z,1.52
2022-11-27T03:10:00.848Z,3.28
2022-11-27T03:12:28.126Z,1.40
2022-11-27T03:14:55.308Z,2.30
2022-11-27T03:17:40.005Z,3.53
2022-11-27T03:20:42.260Z,4.28
2022-11-27T03:23:09.286Z,2.55
2022-11-27T03:25:36.283Z,2.28
2022-11-27T03:28:08.587Z,4.00
2022-11-27T03:30:35.662Z,2.97
2022-11-27T03:33:03.203Z,3.30
2022-11-27T03:35:31.377Z,1.58
2022-11-27T03:37:58.491Z,2.78
2022-11-27T03:40:34.304Z,2.80
2022-11-27T03:43:11.415Z,3.08
2022-11-27T03:45:52.795Z,6.55
2022-11-27T03:48:22.748Z,2.42
2022-11-27T03:51:10.862Z,1.73
2022-11-27T03:53:43.441Z,1.10
2022-11-27T03:56:34.203Z,2.22
2022-11-27T03:59:23.539Z,1.85
2022-11-27T04:01:51.008Z,1.08
2022-11-27T04:04:18.175Z,1.70
2022-11-27T04:06:45.375Z,2.53
2022-11-27T04:09:12.336Z,4.82
2022-11-27T04:11:39.369Z,3.63
2022-11-27T04:14:06.771Z,3.65
2022-11-27T04:16:33.865Z,2.15
2022-11-27T04:19:01.058Z,1.15
2022-11-27T04:21:28.025Z,3.10
2022-11-27T04:23:55.216Z,2.03
2022-11-27T04:26:22.346Z,1.20
2022-11-27T04:28:49.293Z,3.03
2022-11-27T04:31:16.413Z,1.30
2022-11-27T04:33:43.382Z,2.72
2022-11-27T04:36:10.601Z,1.67
2022-11-27T04:38:37.915Z,3.20
2022-11-27T04:41:05.075Z,3.25
2022-11-27T04:43:32.072Z,1.83
2022-11-27T04:45:59.034Z,3.55
2022-11-27T04:48:26.051Z,2.10
2022-11-27T04:50:55.388Z,2.85
2022-11-27T04:53:22.667Z,0.98
2022-11-27T04:55:52.376Z,4.65
2022-11-27T04:58:19.406Z,3.03
2022-11-27T05:00:46.543Z,2.72
2022-11-27T05:03:13.819Z,1.75
2022-11-27T05:05:40.827Z,3.08
2022-11-27T05:08:07.858Z,1.55
2022-11-27T05:10:34.834Z,2.70
2022-11-27T05:13:01.815Z,3.95
2022-11-27T05:15:28.913Z,1.48
2022-11-27T05:17:55.888Z,3.42
2022-11-27T05:20:22.945Z,2.17
2022-11-27T05:22:50.830Z,1.52
2022-11-27T05:25:17.881Z,3.05
2022-11-27T05:27:44.862Z,1.48
2022-11-27T05:30:12.116Z,1.40
2022-11-27T05:32:39.137Z,1.42
2022-11-27T05:35:06.564Z,4.18
2022-11-27T05:37:33.507Z,3.38
2022-11-27T05:40:00.571Z,1.60
2022-11-27T05:42:27.651Z,2.15
2022-11-27T05:44:58.245Z,1.33
2022-11-27T05:47:25.783Z,1.58
2022-11-27T05:49:52.911Z,2.50
2022-11-27T05:52:19.989Z,1.83
2022-11-27T05:54:46.985Z,2.67
2022-11-27T05:57:13.995Z,4.28
2022-11-27T05:59:40.969Z,1.50
2022-11-27T06:02:08.104Z,1.80
2022-11-27T06:04:35.152Z,2.00
2022-11-27T06:07:02.125Z,1.85
2022-11-27T06:09:29.134Z,5.18
2022-11-27T06:11:56.583Z,1.75
2022-11-27T06:14:23.731Z,2.47
2022-11-27T06:16:50.837Z,2.97
2022-11-27T06:19:17.940Z,1.85
2022-11-27T06:21:46.548Z,3.58
2022-11-27T06:24:13.684Z,5.82
2022-11-27T06:26:40.750Z,3.67
2022-11-27T06:29:07.899Z,3.00
2022-11-27T06:31:35.344Z,1.73
2022-11-27T06:34:02.878Z,3.95
2022-11-27T06:36:38.190Z,1.40
2022-11-27T06:39:06.746Z,4.13
2022-11-27T06:41:34.156Z,4.38
2022-11-27T06:44:01.653Z,2.33
2022-11-27T06:46:29.927Z,4.50
2022-11-27T06:48:57.843Z,5.20
2022-11-27T06:51:27.959Z,4.97
2022-11-27T06:53:55.232Z,2.63
2022-11-27T06:56:24.762Z,4.10
2022-11-27T06:58:57.198Z,1.98
2022-11-27T07:01:26.519Z,4.05
2022-11-27T07:03:53.947Z,3.83
2022-11-27T07:06:23.107Z,5.75
2022-11-27T07:08:50.491Z,3.17
2022-11-27T07:11:21.112Z,3.58
2022-11-27T07:13:49.431Z,6.25
2022-11-27T07:16:18.442Z,4.43
2022-11-27T07:18:48.298Z,2.90
2022-11-27T07:21:15.616Z,3.20
2022-11-27T07:23:42.966Z,2.40
2022-11-27T07:26:16.061Z,2.08
2022-11-27T07:28:44.040Z,3.33
2022-11-27T07:31:12.983Z,3.72
2022-11-27T07:33:40.253Z,3.92
2022-11-27T07:36:19.548Z,4.50
2022-11-27T07:38:47.415Z,4.28
2022-11-27T07:41:14.974Z,5.88
2022-11-27T07:43:43.049Z,3.10
2022-11-27T07:46:19.440Z,4.28
2022-11-27T07:48:46.743Z,6.05
2022-11-27T07:51:15.710Z,2.97
2022-11-27T07:53:42.989Z,4.85
2022-11-27T07:56:12.956Z,3.70
2022-11-27T07:58:40.452Z,3.70
2022-11-27T08:01:15.371Z,2.38
2022-11-27T08:03:46.274Z,4.88
2022-11-27T08:06:24.940Z,3.40
2022-11-27T08:08:52.597Z,4.15
2022-11-27T08:11:24.389Z,3.53
2022-11-27T08:14:03.073Z,2.10
2022-11-27T08:16:31.292Z,2.17
2022-11-27T08:18:58.798Z,13.77
2022-11-27T08:21:27.113Z,3.30
2022-11-27T08:23:54.121Z,5.28
2022-11-27T08:26:21.335Z,3.72
2022-11-27T08:28:48.322Z,3.05
2022-11-27T08:31:16.176Z,4.20
2022-11-27T08:33:43.207Z,5.65
2022-11-27T08:36:16.260Z,4.68
2022-11-27T08:38:44.834Z,5.90
2022-11-27T08:41:11.940Z,5.90
2022-11-27T08:43:38.898Z,7.97
2022-11-27T08:46:07.417Z,7.18
2022-11-27T08:48:34.844Z,7.68
2022-11-27T08:51:07.190Z,5.47
2022-11-27T09:30:35.084Z,8.52
2022-11-27T12:17:43.783Z,6.38
2022-11-27T12:20:38.706Z,5.85
2022-11-27T12:23:05.871Z,6.30
2022-11-27T12:30:54.342Z,7.22
2022-11-27T12:33:28.810Z,6.70
2022-11-27T12:36:07.747Z,5.72
2022-11-27T12:38:48.135Z,4.65
2022-11-27T12:41:43.000Z,6.75
2022-11-27T12:44:34.315Z,5.63
2022-11-27T12:47:11.412Z,5.07
2022-11-27T12:49:46.581Z,5.82
2022-11-27T12:52:28.522Z,7.63
2022-11-27T12:55:15.508Z,9.02
2022-11-27T12:58:09.698Z,5.70
2022-11-27T13:00:44.181Z,5.68
2022-11-27T13:03:25.282Z,6.30
2022-11-27T13:05:58.170Z,8.20
2022-11-27T13:08:30.762Z,8.00
2022-11-27T13:11:04.999Z,6.63
2022-11-27T13:13:37.477Z,10.50
2022-11-27T13:16:15.599Z,5.10
2022-11-27T13:18:50.585Z,6.60
2022-11-27T13:21:28.502Z,7.65
2022-11-27T13:23:56.275Z,8.32
2022-11-27T13:26:40.449Z,5.68
2022-11-27T13:31:57.418Z,6.35
2022-11-27T13:34:28.595Z,5.72
2022-11-27T13:37:03.091Z,5.13
2022-11-27T14:25:36.414Z,9.05
2022-11-27T14:28:26.026Z,7.70
2022-11-27T14:31:01.597Z,6.78
2022-11-27T14:33:59.643Z,6.10
2022-11-27T14:36:23.489Z,9.88
2022-11-27T14:38:50.559Z,6.72
2022-11-27T14:41:20.680Z,5.97
2022-11-27T14:43:48.100Z,5.30
2022-11-27T14:46:19.288Z,5.53
2022-11-27T14:48:57.034Z,9.55
2022-11-27T14:51:26.956Z,8.15
2022-11-27T14:54:03.320Z,5.43
2022-11-27T14:56:40.670Z,6.75
2022-11-27T14:59:16.005Z,5.35
2022-11-27T15:01:43.216Z,7.28
2022-11-27T15:04:34.701Z,5.65
2022-11-27T15:07:05.706Z,5.20
2022-11-27T15:09:35.773Z,9.40
2022-11-27T15:14:54.424Z,11.65
2022-11-27T15:17:27.196Z,9.30
2022-11-27T15:19:56.145Z,15.75
2022-11-27T15:22:23.536Z,11.20
2022-11-27T15:25:07.866Z,9.20
2022-11-27T15:27:47.589Z,13.80
2022-11-27T15:30:18.373Z,11.10
2022-11-27T15:32:53.440Z,8.95
2022-11-27T15:43:00.690Z,11.88
2022-11-27T15:45:30.449Z,11.07
2022-11-27T15:48:00.065Z,9.73
2022-11-27T15:50:27.947Z,9.48
2022-11-27T15:55:22.405Z,14.27
2022-11-27T15:57:49.598Z,13.20
2022-11-27T16:00:17.107Z,11.95
2022-11-27T16:02:44.211Z,16.58
2022-11-27T16:05:11.328Z,14.80
2022-11-27T16:07:38.622Z,15.40
2022-11-27T16:10:06.518Z,17.10
2022-11-27T16:12:33.955Z,20.38
2022-11-27T16:15:00.911Z,17.08
2022-11-27T16:17:27.948Z,16.55
2022-11-27T16:19:54.996Z,16.40
2022-11-27T16:22:22.121Z,17.35
2022-11-27T16:24:49.402Z,22.85
2022-11-27T16:27:16.544Z,18.95
2022-11-27T16:29:44.235Z,24.65
2022-11-27T16:32:11.402Z,21.88
2022-11-27T16:34:38.742Z,22.73
2022-11-27T16:37:07.016Z,20.83
2022-11-27T16:39:34.042Z,19.10
2022-11-27T16:42:02.524Z,19.02
2022-11-27T16:44:29.690Z,15.10
2022-11-27T16:46:56.660Z,12.32
2022-11-27T16:49:24.203Z,17.95
2022-11-27T16:51:51.781Z,15.63
2022-11-27T16:54:19.419Z,13.35
2022-11-27T16:56:46.699Z,16.00
2022-11-27T16:59:15.579Z,10.80
2022-11-27T17:01:44.065Z,15.18
2022-11-27T17:04:19.166Z,13.35
2022-11-27T17:06:49.155Z,14.50
2022-11-27T17:09:16.677Z,14.05
2022-11-27T17:11:48.721Z,11.68
2022-11-27T17:14:17.097Z,12.80
2022-11-27T17:16:45.063Z,13.68
2022-11-27T17:19:15.063Z,11.60
2022-11-27T17:21:43.667Z,15.15
2022-11-27T17:24:15.271Z,14.02
2022-11-27T17:26:45.592Z,14.40
2022-11-27T17:29:14.365Z,12.52
2022-11-27T17:31:42.012Z,17.25
2022-11-27T17:34:13.158Z,15.27
2022-11-27T17:36:43.148Z,13.07
2022-11-27T17:39:13.140Z,13.98
2022-11-27T17:41:40.998Z,15.25
2022-11-27T17:44:08.638Z,11.00
2022-11-27T17:46:36.995Z,12.82
2022-11-27T17:49:07.141Z,12.35
2022-11-27T17:51:35.990Z,14.30
2022-11-27T17:54:04.522Z,12.23
2022-11-27T17:56:33.543Z,14.75
2022-11-27T17:59:01.165Z,14.02
2022-11-27T18:01:30.725Z,16.95
2022-11-27T18:04:01.263Z,16.13
2022-11-27T18:06:31.187Z,17.77
2022-11-27T18:08:58.914Z,13.40
2022-11-27T18:11:28.682Z,16.20
2022-11-27T18:13:58.896Z,14.65
2022-11-27T18:16:32.597Z,13.05
2022-11-27T18:19:02.846Z,17.77
2022-11-27T18:21:31.063Z,13.68
2022-11-27T18:24:22.624Z,14.43
2022-11-27T18:29:35.319Z,13.77
2022-11-27T18:32:02.433Z,14.52
2022-11-27T18:34:29.533Z,12.27
2022-11-27T18:36:59.516Z,16.45
2022-11-27T18:39:27.485Z,15.63
2022-11-27T18:41:54.483Z,13.80
2022-11-27T18:44:21.578Z,16.98
2022-11-27T18:46:48.655Z,14.82
2022-11-27T18:49:16.058Z,13.63
2022-11-27T18:51:43.255Z,11.98
2022-11-27T18:54:10.476Z,10.77
2022-11-27T18:56:38.264Z,19.73
2022-11-27T18:59:07.280Z,17.90
2022-11-27T19:01:41.216Z,11.27
2022-11-27T19:04:10.511Z,14.63
2022-11-27T19:06:38.670Z,16.85
2022-11-27T19:09:06.646Z,19.15
2022-11-27T19:11:35.212Z,13.88
2022-11-27T19:14:04.294Z,11.93
2022-11-27T19:16:34.129Z,12.52
2022-11-27T19:19:03.018Z,12.68
2022-11-27T19:21:33.241Z,13.07
2022-11-27T19:24:02.629Z,12.10
2022-11-27T19:26:32.196Z,11.57
2022-11-27T19:29:02.585Z,12.75
2022-11-27T19:31:32.107Z,14.70
2022-11-27T19:34:01.924Z,11.05
2022-11-27T19:36:31.716Z,14.30
2022-11-27T19:39:06.104Z,13.13
2022-11-27T19:41:33.878Z,13.82
2022-11-27T19:44:03.593Z,14.57
2022-11-27T19:46:33.041Z,15.32
2022-11-27T19:49:03.645Z,15.98
2022-11-27T19:51:41.107Z,15.43
2022-11-27T19:54:13.120Z,14.43
2022-11-27T19:56:42.602Z,15.20
2022-11-27T19:59:10.603Z,14.23
2022-11-27T20:01:40.325Z,14.25
2022-11-27T20:04:10.160Z,13.23
2022-11-27T20:06:37.436Z,10.20
2022-11-27T20:09:05.844Z,13.82
2022-11-27T20:11:35.444Z,11.57
2022-11-27T20:14:05.369Z,15.02
2022-11-27T20:16:34.384Z,13.43
2022-11-27T20:19:05.345Z,12.90
2022-11-27T20:21:34.094Z,11.35
2022-11-27T20:24:02.614Z,12.77
2022-11-27T20:26:30.666Z,13.35
2022-11-27T20:28:59.825Z,13.18
2022-11-27T20:31:36.444Z,11.20
2022-11-27T20:34:05.839Z,11.98
2022-11-27T20:36:39.973Z,14.10
2022-11-27T20:39:19.211Z,12.73
2022-11-27T20:41:54.690Z,12.48
2022-11-27T20:44:24.548Z,13.30
2022-11-27T20:46:53.041Z,12.25
2022-11-27T20:49:20.649Z,10.77
2022-11-27T20:51:51.114Z,14.18
2022-11-27T20:54:23.468Z,10.77
2022-11-27T20:56:54.504Z,14.07
2022-11-27T20:59:25.698Z,9.52
2022-11-27T21:01:55.813Z,9.48
2022-11-27T21:04:27.731Z,11.18
2022-11-27T21:06:56.594Z,11.18
2022-11-27T21:09:24.939Z,9.00
2022-11-27T21:11:51.949Z,11.38
2022-11-27T21:14:19.078Z,10.30
2022-11-27T21:16:50.081Z,10.95
2022-11-27T21:19:28.333Z,10.48
2022-11-27T21:21:57.229Z,9.57
2022-11-27T21:24:27.482Z,13.00
2022-11-27T21:26:58.576Z,11.32
2022-11-27T21:29:29.451Z,11.88
2022-11-27T21:31:58.406Z,12.68
2022-11-27T21:34:25.835Z,11.38
2022-11-27T21:36:52.946Z,11.77
2022-11-27T21:39:20.994Z,13.00
2022-11-27T21:41:51.041Z,10.25
2022-11-27T21:44:19.888Z,10.70
2022-11-27T21:46:55.995Z,9.82
2022-11-27T21:49:30.829Z,12.73
2022-11-27T21:51:59.594Z,11.25
2022-11-27T21:54:31.836Z,10.07
2022-11-27T21:56:58.955Z,14.38
2022-11-27T21:59:26.157Z,13.10
2022-11-27T22:01:53.423Z,12.43
2022-11-27T22:04:21.414Z,13.20
2022-11-27T22:06:48.452Z,10.18
2022-11-27T22:09:19.653Z,8.77
2022-11-27T22:11:49.607Z,9.40
2022-11-27T22:14:19.642Z,8.75
2022-11-27T22:16:47.359Z,11.38
2022-11-27T22:19:16.298Z,10.88
2022-11-27T22:21:46.077Z,13.32
2022-11-27T22:24:18.823Z,11.45
2022-11-27T22:26:54.124Z,9.20
2022-11-27T22:29:21.093Z,10.57
2022-11-27T22:31:48.307Z,8.68
2022-11-27T22:34:16.401Z,8.75
2022-11-27T22:36:51.989Z,7.82
2022-11-27T22:39:19.021Z,8.63
2022-11-27T22:41:46.442Z,9.70
2022-11-27T22:44:19.471Z,11.85
2022-11-27T22:46:47.137Z,7.10
2022-11-27T22:49:16.077Z,11.07
2022-11-27T22:51:47.403Z,11.25
2022-11-27T22:54:17.200Z,7.63
2022-11-27T22:56:45.894Z,13.05
2022-11-27T23:02:02.635Z,9.20
2022-11-27T23:04:30.019Z,11.98
2022-11-27T23:07:00.870Z,11.60
2022-11-27T23:09:28.925Z,8.70
2022-11-27T23:11:57.093Z,8.93
2022-11-27T23:14:30.008Z,8.02
2022-11-27T23:16:57.355Z,10.23
2022-11-27T23:19:24.431Z,9.88
2022-11-27T23:21:57.691Z,9.88
2022-11-27T23:24:25.033Z,10.40
2022-11-27T23:26:53.324Z,8.88
2022-11-27T23:29:20.968Z,8.48
2022-11-27T23:31:48.612Z,8.85
2022-11-27T23:34:16.329Z,7.25
2022-11-27T23:36:43.379Z,9.40
2022-11-27T23:39:13.361Z,10.70
2022-11-27T23:41:40.744Z,10.43
2022-11-27T23:44:08.303Z,11.20
2022-11-27T23:46:35.405Z,7.55
2022-11-27T23:49:05.347Z,9.07
2022-11-27T23:51:33.083Z,7.00
2022-11-27T23:54:01.299Z,7.60
2022-11-27T23:56:30.810Z,8.80
2022-11-27T23:59:02.221Z,8.57
